createdAt,value
2022-12-23T00:01:50.990Z,97321.81
2022-12-23T00:04:17.547Z,97328.63
2022-12-23T00:06:43.943Z,97323.50
2022-12-23T00:09:10.454Z,97326.06
2022-12-23T00:11:36.830Z,97324.41
2022-12-23T00:14:22.203Z,97319.13
2022-12-23T00:16:50.554Z,97320.03
2022-12-23T00:19:17.227Z,97321.81
2022-12-23T00:21:43.620Z,97316.56
2022-12-23T00:24:11.955Z,97310.56
2022-12-23T00:26:38.519Z,97309.84
2022-12-23T00:29:04.955Z,97312.34
2022-12-23T00:31:31.434Z,97305.66
2022-12-23T00:33:57.934Z,97311.53
2022-12-23T00:36:27.505Z,97310.06
2022-12-23T00:39:13.983Z,97303.22
2022-12-23T00:41:58.859Z,97305.84
2022-12-23T00:44:25.508Z,97296.41
2022-12-23T00:46:52.210Z,97295.59
2022-12-23T00:49:38.385Z,97299.03
2022-12-23T00:52:07.281Z,97298.09
2022-12-23T00:54:33.759Z,97285.34
2022-12-23T00:57:00.551Z,97293.84
2022-12-23T00:59:27.065Z,97295.50
2022-12-23T01:02:12.601Z,97283.56
2022-12-23T01:04:57.698Z,97286.81
2022-12-23T01:07:24.662Z,97287.69
2022-12-23T01:09:51.255Z,97287.69
2022-12-23T01:12:18.046Z,97288.47
2022-12-23T01:14:45.141Z,97288.63
2022-12-23T01:17:12.781Z,97287.81
2022-12-23T01:19:39.383Z,97284.38
2022-12-23T01:22:05.886Z,97280.94
2022-12-23T01:24:33.146Z,97280.88
2022-12-23T01:26:59.847Z,97282.69
2022-12-23T01:29:26.380Z,97292.06
2022-12-23T01:31:52.978Z,97291.28
2022-12-23T01:34:19.414Z,97292.13
2022-12-23T01:36:45.940Z,97286.13
2022-12-23T01:39:12.398Z,97289.50
2022-12-23T01:41:58.486Z,97287.84
2022-12-23T01:44:54.909Z,97287.69
2022-12-23T01:47:27.775Z,97275.75
2022-12-23T01:50:02.734Z,97270.53
2022-12-23T01:52:30.991Z,97273.09
2022-12-23T01:54:58.007Z,97280.09
2022-12-23T01:57:24.965Z,97270.69
2022-12-23T02:00:10.581Z,97268.97
2022-12-23T02:02:57.146Z,97269.97
2022-12-23T02:05:24.303Z,97273.44
2022-12-23T02:08:11.931Z,97281.16
2022-12-23T02:11:23.770Z,97281.88
2022-12-23T02:14:33.904Z,97287.84
2022-12-23T02:17:10.173Z,97286.13
2022-12-23T02:19:55.549Z,97283.66
2022-12-23T02:22:43.991Z,97276.00
2022-12-23T02:25:26.510Z,97280.38
2022-12-23T02:28:20.196Z,97289.66
2022-12-23T02:30:53.301Z,97286.31
2022-12-23T02:33:51.426Z,97287.09
2022-12-23T02:36:28.865Z,97281.03
2022-12-23T02:39:24.469Z,97287.00
2022-12-23T02:41:57.363Z,97277.44
2022-12-23T02:44:32.607Z,97287.53
2022-12-23T02:47:05.083Z,97287.50
2022-12-23T02:49:35.187Z,97289.94
2022-12-23T02:52:12.772Z,97279.53
2022-12-23T02:54:45.247Z,97277.94
2022-12-23T02:57:14.394Z,97281.47
2022-12-23T02:59:46.296Z,97278.03
2022-12-23T03:02:13.206Z,97279.81
2022-12-23T03:04:42.247Z,97276.56
2022-12-23T03:07:33.792Z,97279.03
2022-12-23T03:10:35.572Z,97277.34
2022-12-23T03:13:13.190Z,97268.72
2022-12-23T03:15:51.577Z,97278.13
2022-12-23T03:18:32.375Z,97277.28
2022-12-23T03:21:14.304Z,97278.22
2022-12-23T03:23:55.804Z,97273.94
2022-12-23T03:26:31.179Z,97271.34
2022-12-23T03:29:09.399Z,97279.03
2022-12-23T03:31:38.072Z,97270.34
2022-12-23T03:34:10.989Z,97272.81
2022-12-23T03:36:42.187Z,97278.91
2022-12-23T03:39:15.272Z,97279.81
2022-12-23T03:41:48.986Z,97281.47
2022-12-23T03:44:38.299Z,97284.06
2022-12-23T03:47:16.969Z,97277.19
2022-12-23T03:49:49.618Z,97289.13
2022-12-23T03:52:21.694Z,97290.06
2022-12-23T03:54:57.965Z,97297.69
2022-12-23T03:57:34.549Z,97296.00
2022-12-23T04:00:01.098Z,97301.13
2022-12-23T04:02:39.372Z,97302.78
2022-12-23T04:05:30.042Z,97302.72
2022-12-23T04:08:10.978Z,97305.34
2022-12-23T04:10:37.547Z,97308.72
2022-12-23T04:13:04.195Z,97302.50
2022-12-23T04:15:30.799Z,97295.78
2022-12-23T04:17:58.117Z,97304.19
2022-12-23T04:20:25.360Z,97299.72
2022-12-23T04:22:51.759Z,97301.53
2022-12-23T04:25:18.396Z,97301.59
2022-12-23T04:27:44.792Z,97308.41
2022-12-23T04:30:13.690Z,97311.78
2022-12-23T04:32:40.944Z,97311.84
2022-12-23T04:35:08.308Z,97318.75
2022-12-23T04:37:34.728Z,97314.56
2022-12-23T04:40:01.107Z,97321.22
2022-12-23T04:42:27.607Z,97320.34
2022-12-23T04:44:53.992Z,97327.13
2022-12-23T04:47:20.369Z,97329.63
2022-12-23T04:49:46.895Z,97330.59
2022-12-23T04:52:13.276Z,97326.34
2022-12-23T04:54:45.802Z,97336.50
2022-12-23T04:57:12.793Z,97333.84
2022-12-23T04:59:39.188Z,97335.41
2022-12-23T05:02:05.740Z,97346.28
2022-12-23T05:04:32.612Z,97351.25
2022-12-23T05:06:59.039Z,97357.91
2022-12-23T05:09:25.408Z,97352.63
2022-12-23T05:11:51.807Z,97355.91
2022-12-23T05:14:18.215Z,97357.81
2022-12-23T05:16:44.694Z,97362.88
2022-12-23T05:19:11.323Z,97367.06
2022-12-23T05:21:37.776Z,97360.16
2022-12-23T05:24:04.277Z,97360.94
2022-12-23T05:26:30.682Z,97369.44
2022-12-23T05:28:57.067Z,97373.75
2022-12-23T05:31:23.528Z,97380.31
2022-12-23T05:33:50.053Z,97375.13
2022-12-23T05:36:16.558Z,97388.97
2022-12-23T05:38:42.940Z,97389.75
2022-12-23T05:41:11.631Z,97380.31
2022-12-23T05:43:38.007Z,97387.19
2022-12-23T05:46:04.554Z,97382.09
2022-12-23T05:48:31.038Z,97383.03
2022-12-23T05:50:57.498Z,97385.00
2022-12-23T05:53:25.778Z,97384.88
2022-12-23T05:55:52.249Z,97389.00
2022-12-23T05:58:18.692Z,97391.56
2022-12-23T06:00:45.073Z,97396.53
2022-12-23T06:03:12.023Z,97399.84
2022-12-23T06:05:40.159Z,97404.28
2022-12-23T06:08:06.568Z,97402.44
2022-12-23T06:10:33.023Z,97410.19
2022-12-23T06:12:59.385Z,97407.41
2022-12-23T06:15:25.955Z,97416.78
2022-12-23T06:17:52.351Z,97428.78
2022-12-23T06:20:20.979Z,97431.19
2022-12-23T06:22:48.119Z,97419.13
2022-12-23T06:25:14.616Z,97424.16
2022-12-23T06:27:41.039Z,97419.97
2022-12-23T06:30:08.146Z,97426.75
2022-12-23T06:32:38.617Z,97425.84
2022-12-23T06:35:09.042Z,97425.16
2022-12-23T06:37:35.498Z,97431.19
2022-12-23T06:40:02.151Z,97433.72
2022-12-23T06:42:28.615Z,97436.28
2022-12-23T06:44:55.057Z,97438.09
2022-12-23T06:47:21.494Z,97436.44
2022-12-23T06:49:47.942Z,97439.69
2022-12-23T06:52:14.339Z,97443.06
2022-12-23T06:54:40.847Z,97446.44
2022-12-23T06:57:07.248Z,97461.09
2022-12-23T06:59:33.684Z,97474.09
2022-12-23T07:02:00.262Z,97465.25
2022-12-23T07:04:26.871Z,97467.16
2022-12-23T07:06:53.283Z,97465.44
2022-12-23T07:09:19.702Z,97464.38
2022-12-23T07:11:46.113Z,97463.59
2022-12-23T07:14:12.514Z,97470.38
2022-12-23T07:16:38.988Z,97473.81
2022-12-23T07:19:05.435Z,97477.31
2022-12-23T07:21:31.812Z,97469.59
2022-12-23T07:23:58.232Z,97478.19
2022-12-23T07:26:24.668Z,97485.06
2022-12-23T07:28:51.326Z,97490.34
2022-12-23T07:31:17.849Z,97485.31
2022-12-23T07:33:44.752Z,97494.78
2022-12-23T07:36:13.112Z,97512.00
2022-12-23T07:38:39.521Z,97518.69
2022-12-23T07:41:05.950Z,97521.19
2022-12-23T07:43:32.444Z,97519.47
2022-12-23T07:46:00.708Z,97517.06
2022-12-23T07:48:30.393Z,97516.13
2022-12-23T07:51:01.861Z,97511.81
2022-12-23T07:53:28.407Z,97519.41
2022-12-23T07:55:56.813Z,97510.06
2022-12-23T07:58:23.700Z,97520.25
2022-12-23T08:00:50.245Z,97516.94
2022-12-23T08:03:17.061Z,97517.53
2022-12-23T08:05:43.610Z,97515.00
2022-12-23T08:08:12.968Z,97508.84
2022-12-23T08:10:47.714Z,97512.16
2022-12-23T08:13:14.618Z,97502.66
2022-12-23T08:15:41.021Z,97499.22
2022-12-23T08:18:07.406Z,97504.34
2022-12-23T08:20:33.835Z,97499.94
2022-12-23T08:23:00.199Z,97500.69
2022-12-23T08:25:26.599Z,97499.75
2022-12-23T08:27:52.969Z,97507.13
2022-12-23T08:30:19.596Z,97516.38
2022-12-23T08:32:46.018Z,97517.19
2022-12-23T08:35:12.430Z,97522.19
2022-12-23T08:37:38.794Z,97539.00
2022-12-23T08:40:05.710Z,97550.88
2022-12-23T08:42:32.142Z,97549.06
2022-12-23T08:44:58.724Z,97573.78
2022-12-23T08:47:25.205Z,97569.22
2022-12-23T08:49:51.655Z,97563.16
2022-12-23T08:52:19.167Z,97570.88
2022-12-23T08:54:45.633Z,97568.91
2022-12-23T08:57:12.064Z,97578.25
2022-12-23T08:59:38.802Z,97570.59
2022-12-23T09:02:05.402Z,97570.59
2022-12-23T09:04:32.403Z,97560.97
2022-12-23T09:06:58.815Z,97565.94
2022-12-23T09:09:25.289Z,97572.66
2022-12-23T09:11:51.669Z,97571.78
2022-12-23T09:14:18.053Z,97569.84
2022-12-23T09:16:44.487Z,97568.06
2022-12-23T09:19:10.980Z,97575.53
2022-12-23T09:21:37.480Z,97569.34
2022-12-23T09:24:04.123Z,97551.91
2022-12-23T09:26:31.643Z,97561.22
2022-12-23T09:28:58.881Z,97569.56
2022-12-23T09:31:32.350Z,97555.97
2022-12-23T09:34:01.089Z,97553.50
2022-12-23T09:36:27.908Z,97548.47
2022-12-23T09:38:56.269Z,97551.81
2022-12-23T09:42:03.213Z,97534.63
2022-12-23T09:44:57.431Z,97538.13
2022-12-23T09:47:26.941Z,97540.06
2022-12-23T09:50:11.257Z,97538.94
2022-12-23T09:52:46.336Z,97535.50
2022-12-23T09:55:15.578Z,97529.72
2022-12-23T09:57:51.175Z,97528.41
2022-12-23T10:00:20.446Z,97531.03
2022-12-23T10:02:47.318Z,97529.31
2022-12-23T10:05:28.327Z,97524.72
2022-12-23T10:08:15.203Z,97528.19
2022-12-23T10:10:53.221Z,97537.34
2022-12-23T10:13:35.835Z,97546.00
2022-12-23T10:16:31.548Z,97553.09
2022-12-23T10:19:28.795Z,97549.72
2022-12-23T10:22:02.889Z,97553.84
2022-12-23T10:24:36.504Z,97546.13
2022-12-23T10:27:15.352Z,97542.16
2022-12-23T10:29:42.359Z,97545.69
2022-12-23T10:32:31.413Z,97545.09
2022-12-23T10:35:04.975Z,97539.38
2022-12-23T10:37:46.729Z,97531.94
2022-12-23T10:40:25.858Z,97525.34
2022-12-23T10:43:10.022Z,97519.47
2022-12-23T10:45:57.134Z,97526.69
2022-12-23T10:48:49.153Z,97526.69
2022-12-23T10:51:39.013Z,97527.56
2022-12-23T10:54:10.222Z,97539.75
2022-12-23T10:56:37.175Z,97541.50
2022-12-23T10:59:06.422Z,97537.34
2022-12-23T11:01:34.347Z,97535.66
2022-12-23T11:04:16.545Z,97532.31
2022-12-23T11:06:48.278Z,97529.69
2022-12-23T11:09:19.604Z,97524.56
2022-12-23T11:11:58.916Z,97526.19
2022-12-23T11:14:31.412Z,97515.03
2022-12-23T11:16:58.098Z,97504.00
2022-12-23T11:19:24.505Z,97498.03
2022-12-23T11:21:56.769Z,97497.28
2022-12-23T11:24:25.209Z,97499.03
2022-12-23T11:27:01.347Z,97500.72
2022-12-23T11:29:32.141Z,97498.91
2022-12-23T11:31:59.210Z,97498.72
2022-12-23T11:34:27.091Z,97493.53
2022-12-23T11:37:05.211Z,97488.34
2022-12-23T11:39:36.615Z,97486.38
2022-12-23T11:42:11.691Z,97478.72
2022-12-23T11:44:40.141Z,97472.69
2022-12-23T11:47:22.823Z,97474.09
2022-12-23T11:49:54.701Z,97467.00
2022-12-23T11:52:26.847Z,97465.81
2022-12-23T11:55:01.947Z,97462.56
2022-12-23T11:57:48.936Z,97454.63
2022-12-23T12:00:27.345Z,97444.25
2022-12-23T12:02:56.725Z,97447.53
2022-12-23T12:05:36.488Z,97450.84
2022-12-23T12:08:11.427Z,97442.25
2022-12-23T12:10:40.237Z,97446.56
2022-12-23T12:13:20.399Z,97443.03
2022-12-23T12:16:12.184Z,97442.00
2022-12-23T12:18:42.234Z,97441.19
2022-12-23T12:21:17.223Z,97431.03
2022-12-23T12:24:08.143Z,97427.97
2022-12-23T12:26:38.313Z,97428.03
2022-12-23T12:29:18.779Z,97427.00
2022-12-23T12:31:54.493Z,97426.34
2022-12-23T12:34:43.756Z,97415.16
2022-12-23T12:37:20.377Z,97421.97
2022-12-23T12:39:54.384Z,97407.38
2022-12-23T12:42:30.156Z,97410.56
2022-12-23T12:45:20.870Z,97399.28
2022-12-23T12:48:13.147Z,97399.34
2022-12-23T12:50:55.472Z,97392.69
2022-12-23T12:53:22.505Z,97384.16
2022-12-23T12:55:56.496Z,97385.16
2022-12-23T12:58:24.297Z,97389.75
2022-12-23T13:01:02.719Z,97381.03
2022-12-23T13:04:07.480Z,97386.63
2022-12-23T13:07:05.180Z,97388.31
2022-12-23T13:09:51.221Z,97402.00
2022-12-23T13:12:26.219Z,97396.19
2022-12-23T13:15:04.419Z,97382.41
2022-12-23T13:17:45.526Z,97388.53
2022-12-23T13:20:34.016Z,97382.41
2022-12-23T13:23:41.715Z,97373.69
2022-12-23T13:26:09.201Z,97365.22
2022-12-23T13:28:38.491Z,97365.22
2022-12-23T13:31:15.692Z,97355.69
2022-12-23T13:33:52.221Z,97335.84
2022-12-23T13:36:42.560Z,97326.25
2022-12-23T13:39:27.366Z,97329.09
2022-12-23T13:42:02.956Z,97331.53
2022-12-23T13:44:33.606Z,97329.72
2022-12-23T13:47:29.445Z,97318.34
2022-12-23T13:50:15.629Z,97304.66
2022-12-23T13:53:07.439Z,97296.69
2022-12-23T13:55:51.833Z,97289.34
2022-12-23T13:58:20.105Z,97292.81
2022-12-23T14:00:46.640Z,97293.13
2022-12-23T14:03:25.083Z,97291.50
2022-12-23T14:05:53.333Z,97282.91
2022-12-23T14:08:19.712Z,97282.19
2022-12-23T14:11:19.771Z,97287.38
2022-12-23T14:13:55.721Z,97279.53
2022-12-23T14:16:37.417Z,97275.38
2022-12-23T14:19:19.180Z,97271.13
2022-12-23T14:21:57.444Z,97270.47
2022-12-23T14:24:42.871Z,97267.13
2022-12-23T14:27:46.822Z,97262.00
2022-12-23T14:30:22.052Z,97257.94
2022-12-23T14:33:00.708Z,97261.22
2022-12-23T14:35:50.463Z,97262.13
2022-12-23T14:38:16.876Z,97263.81
2022-12-23T14:40:43.435Z,97251.00
2022-12-23T14:43:22.065Z,97248.81
2022-12-23T14:45:57.012Z,97247.03
2022-12-23T14:48:35.820Z,97234.41
2022-12-23T14:51:08.518Z,97221.53
2022-12-23T14:53:58.656Z,97217.19
2022-12-23T14:56:43.314Z,97216.38
2022-12-23T14:59:42.740Z,97217.31
2022-12-23T15:02:31.029Z,97209.59
2022-12-23T15:04:58.964Z,97204.47
2022-12-23T15:07:37.984Z,97200.97
2022-12-23T15:10:08.773Z,97198.47
2022-12-23T15:12:40.349Z,97186.47
2022-12-23T15:15:13.162Z,97193.31
2022-12-23T15:17:39.659Z,97192.50
2022-12-23T15:20:15.447Z,97178.75
2022-12-23T15:22:44.370Z,97176.31
2022-12-23T15:25:26.095Z,97172.66
2022-12-23T15:28:00.959Z,97164.97
2022-12-23T15:30:35.009Z,97177.13
2022-12-23T15:33:06.388Z,97188.19
2022-12-23T15:35:42.924Z,97178.63
2022-12-23T15:38:14.641Z,97192.44
2022-12-23T15:40:41.213Z,97194.13
2022-12-23T15:43:20.849Z,97192.09
2022-12-23T15:45:47.288Z,97194.63
2022-12-23T15:48:28.341Z,97169.75
2022-12-23T15:51:04.208Z,97163.66
2022-12-23T15:53:39.169Z,97175.03
2022-12-23T15:56:22.264Z,97159.47
2022-12-23T15:58:51.985Z,97155.94
2022-12-23T16:01:22.662Z,97148.84
2022-12-23T16:03:54.368Z,97160.66
2022-12-23T16:06:33.112Z,97159.06
2022-12-23T16:09:04.566Z,97154.66
2022-12-23T16:11:48.096Z,97149.78
2022-12-23T16:14:38.727Z,97152.38
2022-12-23T16:17:08.068Z,97153.03
2022-12-23T16:19:43.837Z,97140.03
2022-12-23T16:22:22.455Z,97131.28
2022-12-23T16:24:51.773Z,97126.28
2022-12-23T16:27:25.250Z,97121.13
2022-12-23T16:29:51.661Z,97119.44
2022-12-23T16:32:19.455Z,97119.16
2022-12-23T16:34:51.149Z,97125.03
2022-12-23T16:37:17.572Z,97113.88
2022-12-23T16:39:44.069Z,97112.22
2022-12-23T16:42:10.871Z,97103.72
2022-12-23T16:44:37.272Z,97090.66
2022-12-23T16:47:09.066Z,97109.31
2022-12-23T16:49:37.383Z,97099.91
2022-12-23T16:52:07.094Z,97083.50
2022-12-23T16:54:33.534Z,97085.13
2022-12-23T16:56:59.964Z,97076.91
2022-12-23T16:59:26.441Z,97082.66
2022-12-23T17:01:56.540Z,97081.00
2022-12-23T17:04:26.025Z,97084.34
2022-12-23T17:06:52.458Z,97076.63
2022-12-23T17:09:19.064Z,97076.69
2022-12-23T17:11:49.039Z,97080.72
2022-12-23T17:14:20.552Z,97076.31
2022-12-23T17:16:47.381Z,97081.63
2022-12-23T17:19:14.594Z,97081.63
2022-12-23T17:21:43.698Z,97075.66
2022-12-23T17:24:26.804Z,97081.53
2022-12-23T17:26:54.300Z,97092.84
2022-12-23T17:29:20.724Z,97089.28
2022-12-23T17:31:48.165Z,97091.09
2022-12-23T17:34:17.042Z,97082.47
2022-12-23T17:36:49.519Z,97085.94
2022-12-23T17:39:16.650Z,97090.88
2022-12-23T17:41:43.104Z,97087.25
2022-12-23T17:44:14.171Z,97090.59
2022-12-23T17:46:40.849Z,97102.63
2022-12-23T17:49:08.642Z,97110.28
2022-12-23T17:51:35.157Z,97105.06
2022-12-23T17:54:02.199Z,97106.53
2022-12-23T17:56:28.954Z,97108.66
2022-12-23T17:58:55.420Z,97111.78
2022-12-23T18:01:25.248Z,97108.44
2022-12-23T18:03:51.992Z,97109.53
2022-12-23T18:06:20.681Z,97109.00
2022-12-23T18:08:47.774Z,97116.66
2022-12-23T18:11:21.491Z,97116.78
2022-12-23T18:13:50.295Z,97120.19
2022-12-23T18:16:16.774Z,97119.81
2022-12-23T18:18:46.602Z,97113.16
2022-12-23T18:21:24.661Z,97131.06
2022-12-23T18:23:53.454Z,97136.13
2022-12-23T18:26:20.322Z,97132.72
2022-12-23T18:28:46.773Z,97126.66
2022-12-23T18:31:19.207Z,97119.81
2022-12-23T18:33:45.956Z,97129.09
2022-12-23T18:36:24.378Z,97127.88
2022-12-23T18:38:52.555Z,97122.72
2022-12-23T18:41:22.168Z,97115.69
2022-12-23T18:43:49.296Z,97111.97
2022-12-23T18:46:15.780Z,97121.53
2022-12-23T18:48:42.708Z,97121.44
2022-12-23T18:51:20.463Z,97122.28
2022-12-23T18:53:48.291Z,97121.38
2022-12-23T18:56:16.396Z,97163.38
2022-12-23T18:58:43.135Z,97155.59
2022-12-23T19:01:17.519Z,97150.94
2022-12-23T19:03:45.122Z,97148.84
2022-12-23T19:06:15.637Z,97151.56
2022-12-23T19:08:43.102Z,97148.28
2022-12-23T19:11:17.767Z,97163.09
2022-12-23T19:13:45.121Z,97153.44
2022-12-23T19:16:17.249Z,97160.66
2022-12-23T19:18:44.522Z,97162.06
2022-12-23T19:21:10.909Z,97156.91
2022-12-23T19:23:39.729Z,97156.91
2022-12-23T19:26:06.292Z,97165.44
2022-12-23T19:28:33.727Z,97171.41
2022-12-23T19:31:00.215Z,97178.25
2022-12-23T19:33:26.606Z,97180.69
2022-12-23T19:35:53.004Z,97192.91
2022-12-23T19:38:19.425Z,97200.41
2022-12-23T19:40:45.812Z,97192.97
2022-12-23T19:43:12.216Z,97206.56
2022-12-23T19:45:38.685Z,97207.53
2022-12-23T19:48:05.437Z,97205.09
2022-12-23T19:50:31.848Z,97202.59
2022-12-23T19:52:58.223Z,97215.78
2022-12-23T19:55:24.683Z,97209.78
2022-12-23T19:57:52.215Z,97221.19
2022-12-23T20:00:21.170Z,97223.84
2022-12-23T20:02:47.598Z,97232.69
2022-12-23T20:05:18.894Z,97233.50
2022-12-23T20:07:45.276Z,97252.28
2022-12-23T20:10:11.725Z,97254.00
2022-12-23T20:12:39.304Z,97259.84
2022-12-23T20:15:06.163Z,97255.59
2022-12-23T20:17:32.539Z,97246.41
2022-12-23T20:19:58.924Z,97250.03
2022-12-23T20:22:25.298Z,97259.22
2022-12-23T20:24:54.325Z,97257.84
2022-12-23T20:27:26.021Z,97260.63
2022-12-23T20:29:54.186Z,97259.81
2022-12-23T20:32:20.555Z,97260.41
2022-12-23T20:34:48.970Z,97253.72
2022-12-23T20:37:15.795Z,97260.94
2022-12-23T20:39:42.165Z,97260.94
2022-12-23T20:42:08.646Z,97270.53
2022-12-23T20:44:36.908Z,97270.81
2022-12-23T20:47:07.396Z,97270.94
2022-12-23T20:49:33.854Z,97271.03
2022-12-23T20:52:00.728Z,97276.09
2022-12-23T20:54:32.642Z,97271.03
2022-12-23T20:57:03.820Z,97264.41
2022-12-23T20:59:30.320Z,97268.81
2022-12-23T21:01:58.877Z,97263.00
2022-12-23T21:04:25.399Z,97266.28
2022-12-23T21:06:51.846Z,97272.41
2022-12-23T21:09:18.233Z,97262.13
2022-12-23T21:11:49.734Z,97262.13
2022-12-23T21:14:16.501Z,97271.38
2022-12-23T21:16:43.363Z,97270.28
2022-12-23T21:19:20.525Z,97285.72
2022-12-23T21:24:26.615Z,97288.84
2022-12-23T21:26:57.347Z,97312.91
2022-12-23T21:29:24.647Z,97312.75
2022-12-23T21:31:52.583Z,97321.16
2022-12-23T21:34:19.128Z,97333.22
2022-12-23T21:36:45.589Z,97342.75
2022-12-23T21:39:15.939Z,97319.50
2022-12-23T21:41:42.625Z,97320.34
2022-12-23T21:44:10.499Z,97328.69
2022-12-23T21:46:36.937Z,97327.78
2022-12-23T21:49:03.473Z,97339.63
2022-12-23T21:51:40.134Z,97347.78
2022-12-23T21:54:08.546Z,97363.38
2022-12-23T21:56:35.567Z,97382.22
2022-12-23T21:59:04.855Z,97401.03
2022-12-23T22:01:32.039Z,97392.81
2022-12-23T22:03:58.529Z,97391.50
2022-12-23T22:06:31.751Z,97385.75
2022-12-23T22:08:59.363Z,97394.88
2022-12-23T22:11:29.526Z,97365.06
2022-12-23T22:13:57.417Z,97391.84
2022-12-23T22:16:25.588Z,97398.03
2022-12-23T22:18:54.532Z,97406.13
2022-12-23T22:21:24.646Z,97407.00
2022-12-23T22:23:53.392Z,97414.13
2022-12-23T22:26:25.838Z,97421.03
2022-12-23T22:28:54.688Z,97418.66
2022-12-23T22:31:25.630Z,97400.00
2022-12-23T22:33:52.163Z,97407.06
2022-12-23T22:36:18.662Z,97411.53
2022-12-23T22:38:52.061Z,97421.22
2022-12-23T22:41:18.633Z,97423.22
2022-12-23T22:43:45.044Z,97421.81
2022-12-23T22:46:11.681Z,97428.88
2022-12-23T22:48:38.157Z,97437.50
2022-12-23T22:51:09.430Z,97448.00
2022-12-23T22:53:36.501Z,97441.28
2022-12-23T22:56:04.588Z,97452.59
2022-12-23T22:58:32.591Z,97457.16
2022-12-23T23:00:59.647Z,97457.38
2022-12-23T23:03:26.606Z,97460.91
2022-12-23T23:06:04.259Z,97462.03
2022-12-23T23:08:31.462Z,97455.19
2022-12-23T23:10:59.500Z,97455.38
2022-12-23T23:13:28.855Z,97470.88
2022-12-23T23:15:56.043Z,97482.03
2022-12-23T23:18:23.526Z,97489.88
2022-12-23T23:20:50.465Z,97494.28
2022-12-23T23:23:17.097Z,97494.28
2022-12-23T23:25:43.557Z,97497.66
2022-12-23T23:28:11.789Z,97506.38
2022-12-23T23:30:39.015Z,97503.81
2022-12-23T23:33:06.850Z,97510.03
2022-12-23T23:35:33.884Z,97512.53
2022-12-23T23:38:00.394Z,97510.63
2022-12-23T23:40:27.091Z,97513.91
2022-12-23T23:42:54.380Z,97521.63
2022-12-23T23:45:20.843Z,97522.53
2022-12-23T23:47:47.359Z,97530.22
2022-12-23T23:50:13.757Z,97544.91
2022-12-23T23:52:40.131Z,97538.06
2022-12-23T23:55:07.326Z,97528.75
2022-12-23T23:57:33.727Z,97529.75
